createdAt,value
2022-12-02T00:02:31.133Z,13.10
2022-12-02T00:05:13.179Z,15.10
2022-12-02T00:07:46.494Z,14.40
2022-12-02T00:10:26.433Z,16.50
2022-12-02T00:13:01.961Z,15.10
2022-12-02T00:15:42.288Z,16.60
2022-12-02T00:18:15.800Z,15.00
2022-12-02T00:20:47.586Z,13.80
2022-12-02T00:23:19.353Z,14.40
2022-12-02T00:25:52.902Z,13.20
2022-12-02T00:28:24.657Z,15.00
2022-12-02T00:30:56.415Z,14.80
2022-12-02T00:33:28.301Z,14.50
2022-12-02T00:36:00.251Z,14.60
2022-12-02T00:38:32.706Z,17.40
2022-12-02T00:41:05.948Z,14.50
2022-12-02T00:43:54.952Z,14.80
2022-12-02T00:46:35.947Z,17.40
2022-12-02T00:49:10.256Z,13.70
2022-12-02T00:51:43.731Z,12.70
2022-12-02T00:54:16.085Z,13.10
2022-12-02T00:56:49.287Z,13.90
2022-12-02T00:59:21.691Z,16.50
2022-12-02T01:01:53.509Z,15.90
2022-12-02T01:04:25.486Z,15.60
2022-12-02T01:06:57.266Z,15.50
2022-12-02T01:09:29.039Z,16.70
2022-12-02T01:12:00.857Z,16.90
2022-12-02T01:14:32.728Z,16.10
2022-12-02T01:17:05.535Z,15.50
2022-12-02T01:19:37.309Z,15.60
2022-12-02T01:22:09.840Z,17.80
2022-12-02T01:24:41.538Z,15.10
2022-12-02T01:27:13.352Z,16.60
2022-12-02T01:29:45.361Z,16.90
2022-12-02T01:32:19.225Z,17.10
2022-12-02T01:34:51.246Z,17.40
2022-12-02T01:37:23.210Z,19.70
2022-12-02T01:39:54.993Z,18.10
2022-12-02T01:42:27.041Z,16.20
2022-12-02T01:44:59.215Z,17.40
2022-12-02T01:47:31.078Z,14.40
2022-12-02T01:50:03.207Z,15.70
2022-12-02T01:52:35.485Z,16.10
2022-12-02T01:55:13.136Z,16.40
2022-12-02T01:57:45.003Z,15.60
2022-12-02T02:00:21.633Z,18.10
2022-12-02T02:02:53.391Z,16.80
2022-12-02T02:05:28.661Z,19.90
2022-12-02T02:08:07.644Z,18.00
2022-12-02T02:10:41.261Z,18.30
2022-12-02T02:13:15.534Z,16.70
2022-12-02T02:15:48.197Z,15.00
2022-12-02T02:18:20.402Z,17.60
2022-12-02T02:20:53.425Z,16.90
2022-12-02T02:23:26.533Z,17.30
2022-12-02T02:26:00.853Z,17.30
2022-12-02T02:28:38.800Z,19.00
2022-12-02T02:31:12.174Z,18.00
2022-12-02T02:33:47.403Z,19.60
2022-12-02T02:36:19.378Z,19.20
2022-12-02T02:38:51.364Z,17.40
2022-12-02T02:41:23.390Z,17.60
2022-12-02T02:43:56.035Z,18.60
2022-12-02T02:46:28.022Z,18.30
2022-12-02T02:49:00.149Z,18.80
2022-12-02T02:51:32.315Z,18.00
2022-12-02T02:54:04.750Z,20.20
2022-12-02T02:56:36.630Z,18.50
2022-12-02T02:59:14.949Z,20.10
2022-12-02T03:01:50.927Z,20.60
2022-12-02T03:04:24.338Z,21.20
2022-12-02T03:06:56.797Z,24.40
2022-12-02T03:09:29.346Z,19.00
2022-12-02T03:12:01.355Z,20.60
2022-12-02T03:14:33.459Z,18.30
2022-12-02T03:17:05.555Z,17.20
2022-12-02T03:19:38.764Z,20.50
2022-12-02T03:22:12.202Z,20.20
2022-12-02T03:24:44.363Z,16.60
2022-12-02T03:27:16.258Z,18.70
2022-12-02T03:29:48.183Z,18.90
2022-12-02T03:32:20.068Z,20.30
2022-12-02T03:34:52.475Z,21.10
2022-12-02T03:37:24.864Z,20.10
2022-12-02T03:39:56.673Z,18.50
2022-12-02T03:42:28.784Z,19.20
2022-12-02T03:45:01.784Z,18.50
2022-12-02T03:47:34.022Z,17.20
2022-12-02T03:50:07.341Z,16.90
2022-12-02T03:52:39.703Z,17.60
2022-12-02T03:55:12.832Z,17.50
2022-12-02T03:57:44.533Z,19.50
2022-12-02T04:00:18.043Z,19.40
2022-12-02T04:02:49.920Z,16.80
2022-12-02T04:05:21.741Z,21.00
2022-12-02T04:07:53.644Z,19.40
2022-12-02T04:10:25.457Z,19.20
2022-12-02T04:12:57.178Z,19.60
2022-12-02T04:15:29.254Z,19.90
2022-12-02T04:18:01.164Z,17.90
2022-12-02T04:20:32.917Z,19.90
2022-12-02T04:23:04.703Z,17.90
2022-12-02T04:25:36.728Z,16.70
2022-12-02T04:28:08.814Z,18.50
2022-12-02T04:30:40.658Z,20.50
2022-12-02T04:33:12.404Z,18.30
2022-12-02T04:35:44.338Z,20.80
2022-12-02T04:38:16.096Z,20.60
2022-12-02T04:40:48.436Z,20.20
2022-12-02T04:43:20.563Z,18.40
2022-12-02T04:45:52.336Z,18.60
2022-12-02T04:48:24.105Z,16.20
2022-12-02T04:50:55.820Z,18.00
2022-12-02T04:53:28.020Z,17.70
2022-12-02T04:55:59.773Z,17.10
2022-12-02T04:58:31.516Z,15.10
2022-12-02T05:01:03.266Z,17.80
2022-12-02T05:03:35.065Z,18.60
2022-12-02T05:06:07.506Z,16.70
2022-12-02T05:08:39.233Z,17.50
2022-12-02T05:11:11.029Z,19.30
2022-12-02T05:13:42.930Z,18.90
2022-12-02T05:16:14.705Z,17.70
2022-12-02T05:18:46.623Z,16.60
2022-12-02T05:21:18.604Z,17.50
2022-12-02T05:23:50.377Z,18.20
2022-12-02T05:26:22.230Z,17.30
2022-12-02T05:28:54.033Z,17.20
2022-12-02T05:31:25.831Z,16.90
2022-12-02T05:33:57.824Z,16.60
2022-12-02T05:36:29.548Z,17.90
2022-12-02T05:39:01.349Z,19.20
2022-12-02T05:41:33.111Z,20.00
2022-12-02T05:44:19.839Z,17.30
2022-12-02T05:46:52.641Z,22.20
2022-12-02T05:49:25.470Z,18.40
2022-12-02T05:52:00.577Z,18.50
2022-12-02T05:54:32.829Z,22.00
2022-12-02T05:57:12.483Z,17.30
2022-12-02T05:59:44.224Z,18.50
2022-12-02T06:02:27.128Z,18.70
2022-12-02T06:04:59.015Z,20.00
2022-12-02T06:07:31.060Z,16.50
2022-12-02T06:10:03.192Z,20.50
2022-12-02T06:12:35.814Z,17.90
2022-12-02T06:15:16.081Z,17.00
2022-12-02T06:17:48.445Z,17.70
2022-12-02T06:20:29.885Z,18.30
2022-12-02T06:23:03.462Z,16.80
2022-12-02T06:25:37.634Z,17.70
2022-12-02T06:28:18.508Z,19.20
2022-12-02T06:30:50.834Z,16.50
2022-12-02T06:33:30.511Z,16.70
2022-12-02T06:36:06.069Z,16.20
2022-12-02T06:38:45.783Z,17.20
2022-12-02T06:41:22.081Z,18.70
2022-12-02T06:44:13.964Z,18.40
2022-12-02T06:46:46.227Z,18.50
2022-12-02T06:49:21.625Z,22.00
2022-12-02T06:51:57.319Z,21.10
2022-12-02T06:54:31.115Z,19.60
2022-12-02T06:57:04.526Z,18.20
2022-12-02T06:59:36.324Z,16.50
2022-12-02T07:02:23.488Z,16.70
2022-12-02T07:04:56.230Z,15.30
2022-12-02T07:07:31.535Z,16.00
2022-12-02T07:10:05.956Z,18.10
2022-12-02T07:12:44.393Z,15.00
2022-12-02T07:15:27.819Z,16.50
2022-12-02T07:18:03.258Z,20.50
2022-12-02T07:20:36.405Z,21.90
2022-12-02T07:23:20.177Z,20.10
2022-12-02T07:25:54.173Z,16.90
2022-12-02T07:28:33.152Z,21.20
2022-12-02T07:31:13.618Z,15.90
2022-12-02T07:33:45.704Z,19.00
2022-12-02T07:36:17.820Z,16.50
2022-12-02T07:39:06.530Z,17.50
2022-12-02T07:41:39.454Z,21.80
2022-12-02T07:44:11.367Z,17.80
2022-12-02T07:46:43.215Z,20.40
2022-12-02T07:49:17.077Z,24.90
2022-12-02T07:51:49.042Z,23.50
2022-12-02T07:54:21.055Z,29.40
2022-12-02T07:56:52.890Z,21.90
2022-12-02T07:59:24.642Z,20.50
2022-12-02T08:01:56.497Z,19.90
2022-12-02T08:04:28.838Z,21.40
2022-12-02T08:07:00.621Z,19.00
2022-12-02T08:09:32.376Z,19.00
2022-12-02T08:12:04.244Z,23.80
2022-12-02T08:14:35.993Z,20.80
2022-12-02T08:17:08.351Z,24.10
2022-12-02T08:19:41.597Z,25.30
2022-12-02T08:22:13.329Z,23.00
2022-12-02T08:24:45.074Z,25.30
2022-12-02T08:27:16.844Z,23.90
2022-12-02T08:29:49.876Z,23.00
2022-12-02T08:32:22.739Z,22.70
2022-12-02T08:34:54.630Z,23.40
2022-12-02T08:37:27.397Z,23.50
2022-12-02T08:39:59.166Z,24.30
2022-12-02T08:42:30.959Z,26.50
2022-12-02T08:45:02.848Z,23.70
2022-12-02T08:47:34.612Z,23.70
2022-12-02T08:50:07.433Z,24.80
2022-12-02T08:52:39.274Z,24.20
2022-12-02T08:55:11.307Z,28.80
2022-12-02T08:57:43.688Z,27.30
2022-12-02T09:00:17.449Z,23.20
2022-12-02T09:02:49.456Z,22.40
2022-12-02T09:05:21.417Z,27.70
2022-12-02T09:07:53.266Z,22.90
2022-12-02T09:10:25.152Z,24.30
2022-12-02T09:12:56.912Z,24.60
2022-12-02T09:15:28.985Z,25.90
2022-12-02T09:18:00.776Z,24.90
2022-12-02T09:20:32.608Z,26.60
2022-12-02T09:23:04.406Z,24.70
2022-12-02T09:25:40.112Z,24.40
2022-12-02T09:28:12.590Z,25.20
2022-12-02T09:30:44.761Z,25.30
2022-12-02T09:33:16.906Z,24.70
2022-12-02T09:35:49.243Z,24.40
2022-12-02T09:38:21.123Z,25.50
2022-12-02T09:40:53.102Z,24.10
2022-12-02T09:43:25.070Z,24.30
2022-12-02T09:45:57.087Z,29.00
2022-12-02T09:48:30.255Z,27.90
2022-12-02T09:51:02.989Z,27.10
2022-12-02T09:53:38.488Z,28.10
2022-12-02T09:56:15.062Z,28.50
2022-12-02T09:58:47.919Z,29.40
2022-12-02T10:01:19.930Z,24.30
2022-12-02T10:03:52.907Z,26.30
2022-12-02T10:06:27.662Z,25.30
2022-12-02T10:09:00.574Z,28.10
2022-12-02T10:11:34.368Z,28.80
2022-12-02T10:14:07.211Z,29.40
2022-12-02T10:16:40.632Z,26.00
2022-12-02T10:19:18.240Z,26.00
2022-12-02T10:21:55.435Z,30.30
2022-12-02T10:24:39.777Z,28.70
2022-12-02T10:27:23.750Z,32.60
2022-12-02T10:29:56.159Z,35.30
2022-12-02T10:32:28.927Z,28.10
2022-12-02T10:35:09.853Z,29.20
2022-12-02T10:37:42.344Z,25.90
2022-12-02T10:40:19.313Z,25.80
2022-12-02T10:43:11.484Z,30.50
2022-12-02T10:45:57.479Z,34.40
2022-12-02T10:48:29.408Z,28.50
2022-12-02T10:51:01.289Z,29.40
2022-12-02T10:53:33.894Z,35.30
2022-12-02T10:56:06.353Z,32.30
2022-12-02T10:58:38.245Z,35.50
2022-12-02T11:01:14.003Z,32.20
2022-12-02T11:03:46.404Z,31.90
2022-12-02T11:06:21.827Z,27.70
2022-12-02T11:09:17.220Z,30.10
2022-12-02T11:11:51.303Z,28.30
2022-12-02T11:14:56.026Z,28.00
2022-12-02T11:17:49.387Z,33.70
2022-12-02T11:20:40.853Z,33.40
2022-12-02T11:23:25.421Z,36.10
2022-12-02T11:26:07.261Z,34.90
2022-12-02T11:29:16.234Z,32.50
2022-12-02T11:32:03.656Z,33.50
2022-12-02T11:35:15.813Z,31.10
2022-12-02T11:37:45.386Z,28.30
2022-12-02T11:40:51.425Z,32.60
2022-12-02T11:43:52.056Z,30.40
2022-12-02T11:46:39.611Z,31.80
2022-12-02T11:49:40.240Z,33.50
2022-12-02T11:52:26.409Z,35.20
2022-12-02T11:55:13.246Z,34.40
2022-12-02T11:57:49.282Z,35.10
2022-12-02T12:00:33.972Z,36.60
2022-12-02T12:03:14.897Z,38.70
2022-12-02T12:06:08.253Z,43.00
2022-12-02T12:08:43.122Z,37.20
2022-12-02T12:11:27.266Z,34.50
2022-12-02T12:14:07.951Z,40.30
2022-12-02T12:16:42.483Z,38.10
2022-12-02T12:19:29.877Z,41.40
2022-12-02T12:22:01.771Z,44.90
2022-12-02T12:24:35.289Z,40.80
2022-12-02T12:27:33.856Z,42.60
2022-12-02T12:30:09.370Z,40.50
2022-12-02T12:32:41.582Z,36.90
2022-12-02T12:35:13.602Z,39.00
2022-12-02T12:37:45.534Z,42.00
2022-12-02T12:40:17.881Z,42.90
2022-12-02T12:42:49.790Z,44.40
2022-12-02T12:45:21.674Z,40.60
2022-12-02T12:47:53.474Z,41.30
2022-12-02T12:50:29.865Z,39.60
2022-12-02T12:53:02.165Z,40.70
2022-12-02T12:55:34.146Z,42.20
2022-12-02T12:58:06.221Z,42.90
2022-12-02T13:00:38.137Z,39.60
2022-12-02T13:03:10.128Z,42.30
2022-12-02T13:05:42.183Z,38.30
2022-12-02T13:08:14.604Z,45.60
2022-12-02T13:10:46.523Z,44.10
2022-12-02T13:13:18.597Z,41.50
2022-12-02T13:15:50.582Z,44.40
2022-12-02T13:18:22.337Z,44.50
2022-12-02T13:20:54.446Z,39.70
2022-12-02T13:23:26.351Z,39.50
2022-12-02T13:25:58.558Z,40.00
2022-12-02T13:28:30.398Z,43.50
2022-12-02T13:31:02.485Z,43.00
2022-12-02T13:33:34.712Z,43.40
2022-12-02T13:36:07.272Z,46.90
2022-12-02T13:38:39.153Z,42.20
2022-12-02T13:41:11.152Z,47.80
2022-12-02T13:43:43.110Z,43.80
2022-12-02T13:46:15.111Z,45.90
2022-12-02T13:48:49.288Z,47.50
2022-12-02T13:51:21.041Z,49.80
2022-12-02T13:53:58.539Z,39.00
2022-12-02T13:56:31.222Z,40.40
2022-12-02T13:59:03.168Z,45.60
2022-12-02T14:01:35.460Z,45.90
2022-12-02T14:04:07.786Z,48.00
2022-12-02T14:06:39.590Z,46.50
2022-12-02T14:09:11.720Z,50.00
2022-12-02T14:11:43.575Z,52.10
2022-12-02T14:14:15.616Z,50.00
2022-12-02T14:16:47.580Z,47.10
2022-12-02T14:19:19.323Z,44.70
2022-12-02T14:21:51.078Z,46.20
2022-12-02T14:24:22.797Z,43.80
2022-12-02T14:26:54.671Z,41.80
2022-12-02T14:29:26.446Z,49.50
2022-12-02T14:31:58.314Z,46.00
2022-12-02T14:34:30.944Z,47.00
2022-12-02T14:37:02.869Z,47.40
2022-12-02T14:39:34.764Z,48.80
2022-12-02T14:42:06.963Z,55.30
2022-12-02T14:44:38.869Z,56.40
2022-12-02T14:47:10.812Z,56.70
2022-12-02T14:49:45.412Z,55.00
2022-12-02T14:52:17.581Z,64.40
2022-12-02T14:54:49.620Z,58.80
2022-12-02T14:57:21.613Z,53.20
2022-12-02T14:59:53.445Z,48.60
2022-12-02T15:02:25.332Z,55.40
2022-12-02T15:04:57.803Z,52.50
2022-12-02T15:07:29.845Z,54.10
2022-12-02T15:10:01.910Z,54.00
2022-12-02T15:12:33.708Z,56.00
2022-12-02T15:15:36.107Z,60.60
2022-12-02T15:17:57.628Z,54.60
2022-12-02T15:20:29.427Z,51.30
2022-12-02T15:23:01.202Z,50.60
2022-12-02T15:25:33.171Z,51.40
2022-12-02T15:28:05.223Z,52.30
2022-12-02T15:30:37.431Z,52.80
2022-12-02T15:33:09.412Z,51.00
2022-12-02T15:35:41.241Z,53.90
2022-12-02T15:38:13.032Z,55.80
2022-12-02T15:40:45.282Z,65.00
2022-12-02T15:43:17.217Z,59.20
2022-12-02T15:45:49.069Z,62.60
2022-12-02T15:48:20.861Z,55.10
2022-12-02T15:50:55.268Z,56.90
2022-12-02T15:53:27.856Z,52.90
2022-12-02T15:55:59.867Z,55.80
2022-12-02T15:58:31.767Z,55.70
2022-12-02T16:01:03.767Z,56.00
2022-12-02T16:03:35.781Z,54.90
2022-12-02T16:06:09.042Z,57.50
2022-12-02T16:08:41.014Z,56.80
2022-12-02T16:11:13.027Z,55.90
2022-12-02T16:13:45.080Z,61.80
2022-12-02T16:16:16.872Z,63.70
2022-12-02T16:18:49.583Z,69.80
2022-12-02T16:21:21.565Z,61.30
2022-12-02T16:23:53.361Z,63.50
2022-12-02T16:26:25.125Z,55.40
2022-12-02T16:28:57.049Z,51.90
2022-12-02T16:31:28.996Z,53.90
2022-12-02T16:34:01.268Z,59.00
2022-12-02T16:36:33.377Z,65.80
2022-12-02T16:39:05.495Z,64.00
2022-12-02T16:41:37.335Z,63.00
2022-12-02T16:44:09.370Z,64.30
2022-12-02T16:46:42.079Z,59.60
2022-12-02T16:49:14.111Z,67.20
2022-12-02T16:51:46.174Z,68.70
2022-12-02T16:54:18.177Z,62.00
2022-12-02T16:56:54.326Z,55.60
2022-12-02T16:59:28.168Z,55.00
2022-12-02T17:02:00.179Z,55.50
2022-12-02T17:04:32.153Z,51.50
2022-12-02T17:07:04.077Z,54.60
2022-12-02T17:09:36.034Z,54.20
2022-12-02T17:12:09.267Z,51.70
2022-12-02T17:14:41.307Z,60.10
2022-12-02T17:17:37.716Z,52.70
2022-12-02T17:20:05.374Z,61.50
2022-12-02T17:22:37.217Z,53.80
2022-12-02T17:25:10.515Z,64.00
2022-12-02T17:27:42.619Z,59.10
2022-12-02T17:30:15.432Z,56.20
2022-12-02T17:32:53.348Z,61.40
2022-12-02T17:35:31.023Z,54.00
2022-12-02T17:38:03.102Z,54.70
2022-12-02T17:40:35.010Z,55.00
2022-12-02T17:43:07.488Z,54.00
2022-12-02T17:45:39.668Z,61.00
2022-12-02T17:48:11.627Z,59.50
2022-12-02T17:50:43.531Z,52.30
2022-12-02T17:53:15.270Z,62.90
2022-12-02T17:55:49.737Z,63.10
2022-12-02T17:58:21.535Z,59.50
2022-12-02T18:00:53.424Z,60.50
2022-12-02T18:03:25.498Z,51.00
2022-12-02T18:05:57.446Z,59.60
2022-12-02T18:08:29.571Z,56.00
2022-12-02T18:11:01.685Z,64.30
2022-12-02T18:13:33.637Z,58.30
2022-12-02T18:16:07.757Z,72.20
2022-12-02T18:18:39.554Z,61.90
2022-12-02T18:21:11.744Z,63.90
2022-12-02T18:23:43.946Z,60.30
2022-12-02T18:26:16.367Z,58.60
2022-12-02T18:28:48.297Z,60.30
2022-12-02T18:31:20.327Z,63.90
2022-12-02T18:33:52.616Z,66.20
2022-12-02T18:36:24.617Z,64.20
2022-12-02T18:38:56.544Z,65.40
2022-12-02T18:41:28.539Z,64.30
2022-12-02T18:44:00.528Z,62.20
2022-12-02T18:46:32.344Z,65.40
2022-12-02T18:49:04.315Z,64.10
2022-12-02T18:51:36.362Z,65.00
2022-12-02T18:54:08.276Z,62.00
2022-12-02T18:56:40.217Z,62.50
2022-12-02T18:59:12.953Z,63.40
2022-12-02T19:01:47.695Z,62.70
2022-12-02T19:04:19.523Z,63.80
2022-12-02T19:06:51.285Z,66.60
2022-12-02T19:09:23.055Z,60.60
2022-12-02T19:11:54.919Z,58.40
2022-12-02T19:14:27.145Z,56.30
2022-12-02T19:16:58.875Z,60.50
2022-12-02T19:19:30.609Z,64.70
2022-12-02T19:22:02.385Z,62.60
2022-12-02T19:24:34.301Z,63.30
2022-12-02T19:27:06.691Z,64.90
2022-12-02T19:29:38.561Z,60.00
2022-12-02T19:32:10.749Z,63.00
2022-12-02T19:34:43.015Z,59.20
2022-12-02T19:37:15.337Z,62.20
2022-12-02T19:39:47.110Z,60.10
2022-12-02T19:42:18.937Z,64.10
2022-12-02T19:44:51.005Z,61.50
2022-12-02T19:47:22.960Z,63.10
2022-12-02T19:49:54.756Z,71.90
2022-12-02T19:52:26.544Z,70.30
2022-12-02T19:54:58.773Z,73.30
2022-12-02T19:57:30.782Z,67.80
2022-12-02T20:00:02.702Z,72.30
2022-12-02T20:02:44.095Z,71.10
2022-12-02T20:05:18.641Z,67.50
2022-12-02T20:07:51.226Z,64.80
2022-12-02T20:10:23.263Z,60.60
2022-12-02T20:12:55.090Z,60.50
2022-12-02T20:15:26.870Z,65.20
2022-12-02T20:17:59.180Z,67.10
2022-12-02T20:20:30.912Z,69.00
2022-12-02T20:23:02.858Z,77.60
2022-12-02T20:25:34.795Z,69.80
2022-12-02T20:28:06.725Z,71.00
2022-12-02T20:30:38.651Z,71.10
2022-12-02T20:33:11.023Z,64.80
2022-12-02T20:35:42.840Z,67.90
2022-12-02T20:38:14.843Z,65.20
2022-12-02T20:40:46.653Z,65.70
2022-12-02T20:43:18.430Z,70.70
2022-12-02T20:45:50.316Z,65.60
2022-12-02T20:48:22.221Z,68.40
2022-12-02T20:50:55.060Z,77.10
2022-12-02T20:53:26.837Z,73.70
2022-12-02T20:55:58.657Z,70.50
2022-12-02T20:58:33.542Z,73.50
2022-12-02T21:01:11.941Z,71.60
2022-12-02T21:03:47.335Z,60.50
2022-12-02T21:06:19.810Z,63.80
2022-12-02T21:08:55.404Z,66.70
2022-12-02T21:11:27.382Z,63.30
2022-12-02T21:13:59.834Z,65.10
2022-12-02T21:16:31.696Z,66.10
2022-12-02T21:19:03.696Z,72.50
2022-12-02T21:21:35.610Z,70.50
2022-12-02T21:24:08.187Z,70.00
2022-12-02T21:26:42.092Z,76.70
2022-12-02T21:29:14.072Z,67.00
2022-12-02T21:31:46.091Z,63.20
2022-12-02T21:34:17.962Z,65.60
2022-12-02T21:36:49.758Z,68.00
2022-12-02T21:39:21.674Z,69.80
2022-12-02T21:41:53.710Z,66.50
2022-12-02T21:44:25.699Z,71.80
2022-12-02T21:46:57.590Z,71.50
2022-12-02T21:49:29.438Z,67.50
2022-12-02T21:52:01.214Z,72.20
2022-12-02T21:54:33.596Z,71.60
2022-12-02T21:57:07.942Z,69.40
2022-12-02T21:59:39.883Z,69.50
2022-12-02T22:02:14.897Z,61.60
2022-12-02T22:04:47.612Z,64.40
2022-12-02T22:07:37.107Z,64.20
2022-12-02T22:10:11.722Z,66.20
2022-12-02T22:12:43.884Z,64.00
2022-12-02T22:15:17.898Z,72.20
2022-12-02T22:17:49.992Z,60.60
2022-12-02T22:20:21.867Z,69.40
2022-12-02T22:22:53.731Z,69.40
2022-12-02T22:25:25.524Z,68.90
2022-12-02T22:27:57.277Z,72.20
2022-12-02T22:30:29.587Z,62.10
2022-12-02T22:33:01.323Z,61.00
2022-12-02T22:35:33.152Z,64.70
2022-12-02T22:38:04.903Z,60.10
2022-12-02T22:40:36.691Z,62.60
2022-12-02T22:43:08.418Z,59.20
2022-12-02T22:45:40.470Z,60.20
2022-12-02T22:48:12.389Z,67.10
2022-12-02T22:50:44.199Z,60.50
2022-12-02T22:53:15.992Z,65.70
2022-12-02T22:55:47.847Z,63.90
2022-12-02T22:58:19.871Z,65.60
2022-12-02T23:00:51.828Z,68.50
2022-12-02T23:03:24.184Z,57.60
2022-12-02T23:05:55.984Z,59.50
2022-12-02T23:08:27.763Z,56.60
2022-12-02T23:10:59.534Z,57.70
2022-12-02T23:13:31.415Z,54.50
2022-12-02T23:16:03.138Z,60.80
2022-12-02T23:18:34.665Z,56.10
2022-12-02T23:21:06.616Z,64.60
2022-12-02T23:23:38.383Z,63.30
2022-12-02T23:26:10.358Z,64.80
2022-12-02T23:28:42.141Z,66.10
2022-12-02T23:31:14.042Z,55.80
2022-12-02T23:33:45.960Z,56.80
2022-12-02T23:36:17.733Z,58.90
2022-12-02T23:38:49.961Z,52.90
2022-12-02T23:41:22.131Z,53.30
2022-12-02T23:43:53.910Z,53.90
2022-12-02T23:46:25.813Z,59.20
2022-12-02T23:48:57.664Z,57.00
2022-12-02T23:51:29.821Z,61.00
2022-12-02T23:54:01.544Z,62.30
2022-12-02T23:56:33.343Z,63.00
2022-12-02T23:59:05.084Z,58.30
